Weather at Luis Munoz Marin International Airport

Public forecast

Using degrees Celsius for public forecast. Weather courtesy of forecast.io.

Current aviation weather report (METAR) for Luis Munoz Marin International Airport

Report is more than 6 hours old.

2022/11/14 14:56 (retrieved 2 years ago)

TJSJ 141456Z 07013KT 10SM FEW024 SCT030 SCT080 31/25 A3000

Aviation forecast (TAF) for Luis Munoz Marin International Airport

Forecast is more than 12 hours old.

2023/02/22 18:33 (retrieved 1 year ago)

TAF TJSJ 221728Z 2218/2318 06015G23KT P6SM FEW035 FEW060 FM222200 06009KT P6SM SCT050 FM231300 06017G25KT P6SM VCSH FEW035 SCT050